sensor_id;sensor_type;location;lat;lon;timestamp;P1;durP1;ratioP1;P2;durP2;ratioP2
43706;SDS011;61348;53.392;-6.248;2023-04-09T00:01:38;4.82;;;1.52;;
43706;SDS011;61348;53.392;-6.248;2023-04-09T00:04:05;5.72;;;1.85;;
43706;SDS011;61348;53.392;-6.248;2023-04-09T00:06:32;7.80;;;2.13;;
43706;SDS011;61348;53.392;-6.248;2023-04-09T00:08:59;5.50;;;1.80;;
43706;SDS011;61348;53.392;-6.248;2023-04-09T00:11:26;3.25;;;1.55;;
43706;SDS011;61348;53.392;-6.248;2023-04-09T00:13:52;4.60;;;2.08;;
43706;SDS011;61348;53.392;-6.248;2023-04-09T00:16:19;2.83;;;1.75;;
43706;SDS011;61348;53.392;-6.248;2023-04-09T00:18:46;4.45;;;1.65;;
43706;SDS011;61348;53.392;-6.248;2023-04-09T00:21:12;3.55;;;1.60;;
43706;SDS011;61348;53.392;-6.248;2023-04-09T00:23:42;5.63;;;2.00;;
43706;SDS011;61348;53.392;-6.248;2023-04-09T00:26:09;3.40;;;2.20;;
43706;SDS011;61348;53.392;-6.248;2023-04-09T00:28:36;5.47;;;2.03;;
43706;SDS011;61348;53.392;-6.248;2023-04-09T00:31:02;7.40;;;3.38;;
43706;SDS011;61348;53.392;-6.248;2023-04-09T00:33:29;8.55;;;2.33;;
43706;SDS011;61348;53.392;-6.248;2023-04-09T00:35:56;8.15;;;2.28;;
43706;SDS011;61348;53.392;-6.248;2023-04-09T00:38:23;3.50;;;1.80;;
43706;SDS011;61348;53.392;-6.248;2023-04-09T00:40:50;4.90;;;2.63;;
43706;SDS011;61348;53.392;-6.248;2023-04-09T00:43:17;7.25;;;1.92;;
43706;SDS011;61348;53.392;-6.248;2023-04-09T00:45:44;5.05;;;2.30;;
43706;SDS011;61348;53.392;-6.248;2023-04-09T00:48:12;8.07;;;2.20;;
43706;SDS011;61348;53.392;-6.248;2023-04-09T00:50:39;12.85;;;3.42;;
43706;SDS011;61348;53.392;-6.248;2023-04-09T00:53:07;6.25;;;2.30;;
43706;SDS011;61348;53.392;-6.248;2023-04-09T00:55:35;5.70;;;2.88;;
43706;SDS011;61348;53.392;-6.248;2023-04-09T00:58:05;8.77;;;2.60;;
43706;SDS011;61348;53.392;-6.248;2023-04-09T01:00:32;7.78;;;2.92;;
43706;SDS011;61348;53.392;-6.248;2023-04-09T01:02:59;5.15;;;3.17;;
43706;SDS011;61348;53.392;-6.248;2023-04-09T01:05:30;9.35;;;2.83;;
43706;SDS011;61348;53.392;-6.248;2023-04-09T01:16:56;6.32;;;2.25;;
43706;SDS011;61348;53.392;-6.248;2023-04-09T01:21:58;7.15;;;3.15;;
43706;SDS011;61348;53.392;-6.248;2023-04-09T01:27:17;13.88;;;2.88;;
43706;SDS011;61348;53.392;-6.248;2023-04-09T01:29:44;7.18;;;3.08;;
43706;SDS011;61348;53.392;-6.248;2023-04-09T01:32:13;6.65;;;3.08;;
43706;SDS011;61348;53.392;-6.248;2023-04-09T01:34:44;5.68;;;3.25;;
43706;SDS011;61348;53.392;-6.248;2023-04-09T01:37:13;11.15;;;3.35;;
43706;SDS011;61348;53.392;-6.248;2023-04-09T01:39:42;6.38;;;3.47;;
43706;SDS011;61348;53.392;-6.248;2023-04-09T01:42:09;7.13;;;2.90;;
43706;SDS011;61348;53.392;-6.248;2023-04-09T01:44:38;11.82;;;3.60;;
43706;SDS011;61348;53.392;-6.248;2023-04-09T01:47:07;12.57;;;3.20;;
43706;SDS011;61348;53.392;-6.248;2023-04-09T01:49:35;13.02;;;3.35;;
43706;SDS011;61348;53.392;-6.248;2023-04-09T01:52:03;14.27;;;4.53;;
43706;SDS011;61348;53.392;-6.248;2023-04-09T01:54:30;10.05;;;3.45;;
43706;SDS011;61348;53.392;-6.248;2023-04-09T01:56:58;5.97;;;3.25;;
43706;SDS011;61348;53.392;-6.248;2023-04-09T01:59:24;13.10;;;3.08;;
43706;SDS011;61348;53.392;-6.248;2023-04-09T02:01:59;8.38;;;2.58;;
43706;SDS011;61348;53.392;-6.248;2023-04-09T02:04:40;11.95;;;3.10;;
43706;SDS011;61348;53.392;-6.248;2023-04-09T02:07:14;8.23;;;2.70;;
43706;SDS011;61348;53.392;-6.248;2023-04-09T02:09:53;8.85;;;2.85;;
43706;SDS011;61348;53.392;-6.248;2023-04-09T02:12:21;11.27;;;2.97;;
43706;SDS011;61348;53.392;-6.248;2023-04-09T02:14:52;7.35;;;2.70;;
43706;SDS011;61348;53.392;-6.248;2023-04-09T02:17:19;8.70;;;3.15;;
43706;SDS011;61348;53.392;-6.248;2023-04-09T02:19:47;10.65;;;3.40;;
43706;SDS011;61348;53.392;-6.248;2023-04-09T02:22:14;8.52;;;3.15;;
43706;SDS011;61348;53.392;-6.248;2023-04-09T02:24:42;9.88;;;3.72;;
43706;SDS011;61348;53.392;-6.248;2023-04-09T02:27:09;6.97;;;2.78;;
43706;SDS011;61348;53.392;-6.248;2023-04-09T02:29:35;10.13;;;3.30;;
43706;SDS011;61348;53.392;-6.248;2023-04-09T02:32:02;14.10;;;4.05;;
43706;SDS011;61348;53.392;-6.248;2023-04-09T02:34:29;18.15;;;4.22;;
43706;SDS011;61348;53.392;-6.248;2023-04-09T02:36:56;11.25;;;4.05;;
43706;SDS011;61348;53.392;-6.248;2023-04-09T02:39:22;9.60;;;3.58;;
43706;SDS011;61348;53.392;-6.248;2023-04-09T02:41:49;15.25;;;2.92;;
43706;SDS011;61348;53.392;-6.248;2023-04-09T02:44:16;13.25;;;4.82;;
43706;SDS011;61348;53.392;-6.248;2023-04-09T02:46:43;8.65;;;2.40;;
43706;SDS011;61348;53.392;-6.248;2023-04-09T02:49:11;12.32;;;2.50;;
43706;SDS011;61348;53.392;-6.248;2023-04-09T02:51:38;11.40;;;3.20;;
43706;SDS011;61348;53.392;-6.248;2023-04-09T02:54:05;5.55;;;2.83;;
43706;SDS011;61348;53.392;-6.248;2023-04-09T02:56:31;7.30;;;2.63;;
43706;SDS011;61348;53.392;-6.248;2023-04-09T02:58:58;6.53;;;2.53;;
43706;SDS011;61348;53.392;-6.248;2023-04-09T03:01:25;16.33;;;3.63;;
43706;SDS011;61348;53.392;-6.248;2023-04-09T03:03:51;9.55;;;2.58;;
43706;SDS011;61348;53.392;-6.248;2023-04-09T03:06:18;13.02;;;4.20;;
43706;SDS011;61348;53.392;-6.248;2023-04-09T03:08:45;8.23;;;2.47;;
43706;SDS011;61348;53.392;-6.248;2023-04-09T03:11:12;4.68;;;2.10;;
43706;SDS011;61348;53.392;-6.248;2023-04-09T03:13:38;9.60;;;2.75;;
43706;SDS011;61348;53.392;-6.248;2023-04-09T03:16:05;7.10;;;2.20;;
43706;SDS011;61348;53.392;-6.248;2023-04-09T03:18:32;7.40;;;2.35;;
43706;SDS011;61348;53.392;-6.248;2023-04-09T03:20:59;9.05;;;3.15;;
43706;SDS011;61348;53.392;-6.248;2023-04-09T03:23:30;8.93;;;2.17;;
43706;SDS011;61348;53.392;-6.248;2023-04-09T03:26:04;10.80;;;2.55;;
43706;SDS011;61348;53.392;-6.248;2023-04-09T03:28:31;4.88;;;2.50;;
43706;SDS011;61348;53.392;-6.248;2023-04-09T03:30:58;7.70;;;2.47;;
43706;SDS011;61348;53.392;-6.248;2023-04-09T03:33:25;16.25;;;2.53;;
43706;SDS011;61348;53.392;-6.248;2023-04-09T03:35:51;8.60;;;2.20;;
43706;SDS011;61348;53.392;-6.248;2023-04-09T03:38:18;9.57;;;3.13;;
43706;SDS011;61348;53.392;-6.248;2023-04-09T03:40:45;10.52;;;2.63;;
43706;SDS011;61348;53.392;-6.248;2023-04-09T03:43:12;11.00;;;3.72;;
43706;SDS011;61348;53.392;-6.248;2023-04-09T03:45:38;9.20;;;3.00;;
43706;SDS011;61348;53.392;-6.248;2023-04-09T03:48:06;10.77;;;3.17;;
43706;SDS011;61348;53.392;-6.248;2023-04-09T03:50:39;8.95;;;2.80;;
43706;SDS011;61348;53.392;-6.248;2023-04-09T03:53:06;7.10;;;2.42;;
43706;SDS011;61348;53.392;-6.248;2023-04-09T03:55:33;11.70;;;3.53;;
43706;SDS011;61348;53.392;-6.248;2023-04-09T03:58:00;12.05;;;3.15;;
43706;SDS011;61348;53.392;-6.248;2023-04-09T04:00:27;8.88;;;2.83;;
43706;SDS011;61348;53.392;-6.248;2023-04-09T04:02:54;9.40;;;3.78;;
43706;SDS011;61348;53.392;-6.248;2023-04-09T04:05:23;13.65;;;3.25;;
43706;SDS011;61348;53.392;-6.248;2023-04-09T04:07:51;16.58;;;5.28;;
43706;SDS011;61348;53.392;-6.248;2023-04-09T04:10:18;8.75;;;4.10;;
43706;SDS011;61348;53.392;-6.248;2023-04-09T04:12:45;19.02;;;5.60;;
43706;SDS011;61348;53.392;-6.248;2023-04-09T04:15:12;18.65;;;5.68;;
43706;SDS011;61348;53.392;-6.248;2023-04-09T04:17:39;22.60;;;7.20;;
43706;SDS011;61348;53.392;-6.248;2023-04-09T04:20:06;21.30;;;5.43;;
43706;SDS011;61348;53.392;-6.248;2023-04-09T04:22:33;17.00;;;5.03;;
43706;SDS011;61348;53.392;-6.248;2023-04-09T04:25:01;22.50;;;4.45;;
43706;SDS011;61348;53.392;-6.248;2023-04-09T04:27:28;22.63;;;8.07;;
43706;SDS011;61348;53.392;-6.248;2023-04-09T04:29:56;18.05;;;5.25;;
43706;SDS011;61348;53.392;-6.248;2023-04-09T04:32:24;13.13;;;5.18;;
43706;SDS011;61348;53.392;-6.248;2023-04-09T04:34:51;15.65;;;4.95;;
43706;SDS011;61348;53.392;-6.248;2023-04-09T04:37:18;11.82;;;4.50;;
43706;SDS011;61348;53.392;-6.248;2023-04-09T04:39:44;14.27;;;6.95;;
43706;SDS011;61348;53.392;-6.248;2023-04-09T04:42:11;11.38;;;4.95;;
43706;SDS011;61348;53.392;-6.248;2023-04-09T04:44:38;15.35;;;5.60;;
43706;SDS011;61348;53.392;-6.248;2023-04-09T04:47:04;16.60;;;5.88;;
43706;SDS011;61348;53.392;-6.248;2023-04-09T04:49:31;14.50;;;5.80;;
43706;SDS011;61348;53.392;-6.248;2023-04-09T04:51:58;16.13;;;5.43;;
43706;SDS011;61348;53.392;-6.248;2023-04-09T04:54:24;18.60;;;5.10;;
43706;SDS011;61348;53.392;-6.248;2023-04-09T04:56:51;14.70;;;5.47;;
43706;SDS011;61348;53.392;-6.248;2023-04-09T04:59:18;17.70;;;5.68;;
43706;SDS011;61348;53.392;-6.248;2023-04-09T05:01:44;7.45;;;3.30;;
43706;SDS011;61348;53.392;-6.248;2023-04-09T05:04:11;13.10;;;4.20;;
43706;SDS011;61348;53.392;-6.248;2023-04-09T05:06:38;20.00;;;3.90;;
43706;SDS011;61348;53.392;-6.248;2023-04-09T05:09:04;7.05;;;3.33;;
43706;SDS011;61348;53.392;-6.248;2023-04-09T05:11:31;21.80;;;5.32;;
43706;SDS011;61348;53.392;-6.248;2023-04-09T05:13:58;10.15;;;3.25;;
43706;SDS011;61348;53.392;-6.248;2023-04-09T05:16:24;11.18;;;3.10;;
43706;SDS011;61348;53.392;-6.248;2023-04-09T05:18:52;13.93;;;3.78;;
43706;SDS011;61348;53.392;-6.248;2023-04-09T05:21:19;14.68;;;4.93;;
43706;SDS011;61348;53.392;-6.248;2023-04-09T05:23:46;14.65;;;4.68;;
43706;SDS011;61348;53.392;-6.248;2023-04-09T05:26:12;12.88;;;4.45;;
43706;SDS011;61348;53.392;-6.248;2023-04-09T05:28:39;11.50;;;3.72;;
43706;SDS011;61348;53.392;-6.248;2023-04-09T05:31:06;14.25;;;3.55;;
43706;SDS011;61348;53.392;-6.248;2023-04-09T05:33:38;11.82;;;4.30;;
43706;SDS011;61348;53.392;-6.248;2023-04-09T05:36:05;11.85;;;4.28;;
43706;SDS011;61348;53.392;-6.248;2023-04-09T05:38:33;14.88;;;4.20;;
43706;SDS011;61348;53.392;-6.248;2023-04-09T05:41:00;17.20;;;4.40;;
43706;SDS011;61348;53.392;-6.248;2023-04-09T05:43:26;14.95;;;3.85;;
43706;SDS011;61348;53.392;-6.248;2023-04-09T05:45:53;16.58;;;5.68;;
43706;SDS011;61348;53.392;-6.248;2023-04-09T05:48:22;13.57;;;3.40;;
43706;SDS011;61348;53.392;-6.248;2023-04-09T05:50:49;10.93;;;3.78;;
43706;SDS011;61348;53.392;-6.248;2023-04-09T05:53:21;14.68;;;4.32;;
43706;SDS011;61348;53.392;-6.248;2023-04-09T05:55:48;16.48;;;4.82;;
43706;SDS011;61348;53.392;-6.248;2023-04-09T05:58:14;14.63;;;5.43;;
43706;SDS011;61348;53.392;-6.248;2023-04-09T06:00:41;21.52;;;4.68;;
43706;SDS011;61348;53.392;-6.248;2023-04-09T06:03:08;13.98;;;4.45;;
43706;SDS011;61348;53.392;-6.248;2023-04-09T06:05:35;22.10;;;5.90;;
43706;SDS011;61348;53.392;-6.248;2023-04-09T06:08:02;16.92;;;5.93;;
43706;SDS011;61348;53.392;-6.248;2023-04-09T06:10:31;17.45;;;4.43;;
43706;SDS011;61348;53.392;-6.248;2023-04-09T06:12:58;11.07;;;3.90;;
43706;SDS011;61348;53.392;-6.248;2023-04-09T06:15:24;14.00;;;4.13;;
43706;SDS011;61348;53.392;-6.248;2023-04-09T06:17:51;17.50;;;4.00;;
43706;SDS011;61348;53.392;-6.248;2023-04-09T06:20:18;17.10;;;5.50;;
43706;SDS011;61348;53.392;-6.248;2023-04-09T06:22:45;24.60;;;5.50;;
43706;SDS011;61348;53.392;-6.248;2023-04-09T06:25:11;17.50;;;5.15;;
43706;SDS011;61348;53.392;-6.248;2023-04-09T06:27:38;12.25;;;5.35;;
43706;SDS011;61348;53.392;-6.248;2023-04-09T06:30:05;16.50;;;4.80;;
43706;SDS011;61348;53.392;-6.248;2023-04-09T06:32:32;14.10;;;4.68;;
43706;SDS011;61348;53.392;-6.248;2023-04-09T06:35:17;11.77;;;5.03;;
43706;SDS011;61348;53.392;-6.248;2023-04-09T06:37:44;14.13;;;5.28;;
43706;SDS011;61348;53.392;-6.248;2023-04-09T06:40:10;13.70;;;5.45;;
43706;SDS011;61348;53.392;-6.248;2023-04-09T06:42:39;12.13;;;4.65;;
43706;SDS011;61348;53.392;-6.248;2023-04-09T06:45:05;12.73;;;5.13;;
43706;SDS011;61348;53.392;-6.248;2023-04-09T06:47:34;15.93;;;4.55;;
43706;SDS011;61348;53.392;-6.248;2023-04-09T06:50:01;18.23;;;5.10;;
43706;SDS011;61348;53.392;-6.248;2023-04-09T06:52:28;11.40;;;4.30;;
43706;SDS011;61348;53.392;-6.248;2023-04-09T06:54:55;15.23;;;4.95;;
43706;SDS011;61348;53.392;-6.248;2023-04-09T06:57:22;12.15;;;5.28;;
43706;SDS011;61348;53.392;-6.248;2023-04-09T06:59:49;16.60;;;5.40;;
43706;SDS011;61348;53.392;-6.248;2023-04-09T07:02:15;17.48;;;5.05;;
43706;SDS011;61348;53.392;-6.248;2023-04-09T07:04:42;17.90;;;7.72;;
43706;SDS011;61348;53.392;-6.248;2023-04-09T07:07:09;20.88;;;5.00;;
43706;SDS011;61348;53.392;-6.248;2023-04-09T07:09:36;17.70;;;5.53;;
43706;SDS011;61348;53.392;-6.248;2023-04-09T07:12:03;19.83;;;8.25;;
43706;SDS011;61348;53.392;-6.248;2023-04-09T07:14:29;18.48;;;5.90;;
43706;SDS011;61348;53.392;-6.248;2023-04-09T07:16:56;15.70;;;5.07;;
43706;SDS011;61348;53.392;-6.248;2023-04-09T07:19:23;13.40;;;5.47;;
43706;SDS011;61348;53.392;-6.248;2023-04-09T07:21:49;18.48;;;5.40;;
43706;SDS011;61348;53.392;-6.248;2023-04-09T07:24:16;11.75;;;5.60;;
43706;SDS011;61348;53.392;-6.248;2023-04-09T07:26:43;14.63;;;5.10;;
43706;SDS011;61348;53.392;-6.248;2023-04-09T07:29:10;15.77;;;5.28;;
43706;SDS011;61348;53.392;-6.248;2023-04-09T07:31:37;10.82;;;4.53;;
43706;SDS011;61348;53.392;-6.248;2023-04-09T07:34:04;11.07;;;5.18;;
43706;SDS011;61348;53.392;-6.248;2023-04-09T07:36:31;16.25;;;4.90;;
43706;SDS011;61348;53.392;-6.248;2023-04-09T07:38:58;15.18;;;5.55;;
43706;SDS011;61348;53.392;-6.248;2023-04-09T07:41:25;18.52;;;4.65;;
43706;SDS011;61348;53.392;-6.248;2023-04-09T07:43:51;17.50;;;5.10;;
43706;SDS011;61348;53.392;-6.248;2023-04-09T07:46:18;15.43;;;5.35;;
43706;SDS011;61348;53.392;-6.248;2023-04-09T07:48:46;17.75;;;5.30;;
43706;SDS011;61348;53.392;-6.248;2023-04-09T07:51:15;17.30;;;5.75;;
43706;SDS011;61348;53.392;-6.248;2023-04-09T07:53:42;17.83;;;5.82;;
43706;SDS011;61348;53.392;-6.248;2023-04-09T07:56:08;23.30;;;7.50;;
43706;SDS011;61348;53.392;-6.248;2023-04-09T07:58:35;15.63;;;5.47;;
43706;SDS011;61348;53.392;-6.248;2023-04-09T08:01:03;19.25;;;5.20;;
43706;SDS011;61348;53.392;-6.248;2023-04-09T08:03:30;19.45;;;5.32;;
43706;SDS011;61348;53.392;-6.248;2023-04-09T08:05:57;20.08;;;6.45;;
43706;SDS011;61348;53.392;-6.248;2023-04-09T08:08:24;14.70;;;5.25;;
43706;SDS011;61348;53.392;-6.248;2023-04-09T08:10:51;19.77;;;5.93;;
43706;SDS011;61348;53.392;-6.248;2023-04-09T08:13:19;14.45;;;5.43;;
43706;SDS011;61348;53.392;-6.248;2023-04-09T08:15:45;16.85;;;5.88;;
43706;SDS011;61348;53.392;-6.248;2023-04-09T08:18:12;12.75;;;5.85;;
43706;SDS011;61348;53.392;-6.248;2023-04-09T08:20:39;19.63;;;6.07;;
43706;SDS011;61348;53.392;-6.248;2023-04-09T08:23:10;11.30;;;5.57;;
43706;SDS011;61348;53.392;-6.248;2023-04-09T08:25:38;18.42;;;6.15;;
43706;SDS011;61348;53.392;-6.248;2023-04-09T08:28:06;11.48;;;5.57;;
43706;SDS011;61348;53.392;-6.248;2023-04-09T08:30:33;12.02;;;5.63;;
43706;SDS011;61348;53.392;-6.248;2023-04-09T08:33:00;18.60;;;4.78;;
43706;SDS011;61348;53.392;-6.248;2023-04-09T08:35:30;10.52;;;5.10;;
43706;SDS011;61348;53.392;-6.248;2023-04-09T08:37:58;15.70;;;5.35;;
43706;SDS011;61348;53.392;-6.248;2023-04-09T08:40:25;18.88;;;4.10;;
43706;SDS011;61348;53.392;-6.248;2023-04-09T08:42:54;13.57;;;4.63;;
43706;SDS011;61348;53.392;-6.248;2023-04-09T08:45:24;15.98;;;5.20;;
43706;SDS011;61348;53.392;-6.248;2023-04-09T08:47:51;12.35;;;5.85;;
43706;SDS011;61348;53.392;-6.248;2023-04-09T08:50:18;13.65;;;4.90;;
43706;SDS011;61348;53.392;-6.248;2023-04-09T08:52:45;10.07;;;3.83;;
43706;SDS011;61348;53.392;-6.248;2023-04-09T08:55:15;14.93;;;4.70;;
43706;SDS011;61348;53.392;-6.248;2023-04-09T08:57:42;25.25;;;5.45;;
43706;SDS011;61348;53.392;-6.248;2023-04-09T09:00:09;12.75;;;5.60;;
43706;SDS011;61348;53.392;-6.248;2023-04-09T09:02:36;14.57;;;4.38;;
43706;SDS011;61348;53.392;-6.248;2023-04-09T09:05:05;17.58;;;6.03;;
43706;SDS011;61348;53.392;-6.248;2023-04-09T09:07:32;13.13;;;4.15;;
43706;SDS011;61348;53.392;-6.248;2023-04-09T09:10:00;10.25;;;5.20;;
43706;SDS011;61348;53.392;-6.248;2023-04-09T09:15:04;8.15;;;4.43;;
43706;SDS011;61348;53.392;-6.248;2023-04-09T09:17:53;10.98;;;4.63;;
43706;SDS011;61348;53.392;-6.248;2023-04-09T09:20:24;15.02;;;5.10;;
43706;SDS011;61348;53.392;-6.248;2023-04-09T09:22:53;12.85;;;5.15;;
43706;SDS011;61348;53.392;-6.248;2023-04-09T09:25:21;13.38;;;4.50;;
43706;SDS011;61348;53.392;-6.248;2023-04-09T09:27:50;11.38;;;5.13;;
43706;SDS011;61348;53.392;-6.248;2023-04-09T09:30:25;12.73;;;4.95;;
43706;SDS011;61348;53.392;-6.248;2023-04-09T09:32:53;12.07;;;5.85;;
43706;SDS011;61348;53.392;-6.248;2023-04-09T09:35:29;11.40;;;4.70;;
43706;SDS011;61348;53.392;-6.248;2023-04-09T09:37:59;18.70;;;5.60;;
43706;SDS011;61348;53.392;-6.248;2023-04-09T09:40:28;13.80;;;4.85;;
43706;SDS011;61348;53.392;-6.248;2023-04-09T09:42:55;9.95;;;4.68;;
43706;SDS011;61348;53.392;-6.248;2023-04-09T09:45:23;17.83;;;6.18;;
43706;SDS011;61348;53.392;-6.248;2023-04-09T09:47:51;13.60;;;5.65;;
43706;SDS011;61348;53.392;-6.248;2023-04-09T09:50:20;11.73;;;4.60;;
43706;SDS011;61348;53.392;-6.248;2023-04-09T09:52:52;13.68;;;6.03;;
43706;SDS011;61348;53.392;-6.248;2023-04-09T09:55:30;16.40;;;5.40;;
43706;SDS011;61348;53.392;-6.248;2023-04-09T09:58:00;15.88;;;5.75;;
43706;SDS011;61348;53.392;-6.248;2023-04-09T10:00:30;15.30;;;5.45;;
43706;SDS011;61348;53.392;-6.248;2023-04-09T10:03:00;15.23;;;6.43;;
43706;SDS011;61348;53.392;-6.248;2023-04-09T10:05:33;12.25;;;5.15;;
43706;SDS011;61348;53.392;-6.248;2023-04-09T10:08:02;13.73;;;5.32;;
43706;SDS011;61348;53.392;-6.248;2023-04-09T10:10:29;10.73;;;6.20;;
43706;SDS011;61348;53.392;-6.248;2023-04-09T10:12:57;12.05;;;6.07;;
43706;SDS011;61348;53.392;-6.248;2023-04-09T10:15:24;14.18;;;6.38;;
43706;SDS011;61348;53.392;-6.248;2023-04-09T10:17:54;20.88;;;5.70;;
43706;SDS011;61348;53.392;-6.248;2023-04-09T10:20:23;16.05;;;5.50;;
43706;SDS011;61348;53.392;-6.248;2023-04-09T10:22:54;12.68;;;6.47;;
43706;SDS011;61348;53.392;-6.248;2023-04-09T10:25:22;13.00;;;6.72;;
43706;SDS011;61348;53.392;-6.248;2023-04-09T10:27:58;19.83;;;6.20;;
43706;SDS011;61348;53.392;-6.248;2023-04-09T10:30:34;22.00;;;6.90;;
43706;SDS011;61348;53.392;-6.248;2023-04-09T10:33:35;14.07;;;6.00;;
43706;SDS011;61348;53.392;-6.248;2023-04-09T10:35:58;17.52;;;7.10;;
43706;SDS011;61348;53.392;-6.248;2023-04-09T10:41:08;20.67;;;6.30;;
43706;SDS011;61348;53.392;-6.248;2023-04-09T10:43:41;17.25;;;7.22;;
43706;SDS011;61348;53.392;-6.248;2023-04-09T10:52:01;17.13;;;7.50;;
43706;SDS011;61348;53.392;-6.248;2023-04-09T10:59:37;20.42;;;8.30;;
43706;SDS011;61348;53.392;-6.248;2023-04-09T11:02:09;15.70;;;6.78;;
43706;SDS011;61348;53.392;-6.248;2023-04-09T11:07:27;19.13;;;7.70;;
43706;SDS011;61348;53.392;-6.248;2023-04-09T11:09:57;21.73;;;9.27;;
43706;SDS011;61348;53.392;-6.248;2023-04-09T11:12:24;17.98;;;7.63;;
43706;SDS011;61348;53.392;-6.248;2023-04-09T11:14:51;17.27;;;7.65;;
43706;SDS011;61348;53.392;-6.248;2023-04-09T11:17:17;30.08;;;8.60;;
43706;SDS011;61348;53.392;-6.248;2023-04-09T11:19:45;17.00;;;7.82;;
43706;SDS011;61348;53.392;-6.248;2023-04-09T11:22:12;25.63;;;9.50;;
43706;SDS011;61348;53.392;-6.248;2023-04-09T11:24:39;24.83;;;10.85;;
43706;SDS011;61348;53.392;-6.248;2023-04-09T11:27:09;27.80;;;8.50;;
43706;SDS011;61348;53.392;-6.248;2023-04-09T11:29:36;23.08;;;9.02;;
43706;SDS011;61348;53.392;-6.248;2023-04-09T11:32:03;21.63;;;8.05;;
43706;SDS011;61348;53.392;-6.248;2023-04-09T11:34:30;18.40;;;7.35;;
43706;SDS011;61348;53.392;-6.248;2023-04-09T11:36:57;26.02;;;7.63;;
43706;SDS011;61348;53.392;-6.248;2023-04-09T11:39:29;15.25;;;6.60;;
43706;SDS011;61348;53.392;-6.248;2023-04-09T11:41:56;15.68;;;6.35;;
43706;SDS011;61348;53.392;-6.248;2023-04-09T11:44:23;28.58;;;10.98;;
43706;SDS011;61348;53.392;-6.248;2023-04-09T11:46:49;16.23;;;7.75;;
43706;SDS011;61348;53.392;-6.248;2023-04-09T11:49:17;23.63;;;7.50;;
43706;SDS011;61348;53.392;-6.248;2023-04-09T11:51:44;18.02;;;7.53;;
43706;SDS011;61348;53.392;-6.248;2023-04-09T11:54:10;20.65;;;7.30;;
43706;SDS011;61348;53.392;-6.248;2023-04-09T11:56:37;14.35;;;7.70;;
43706;SDS011;61348;53.392;-6.248;2023-04-09T11:59:04;13.60;;;5.97;;
43706;SDS011;61348;53.392;-6.248;2023-04-09T12:01:31;15.10;;;7.15;;
43706;SDS011;61348;53.392;-6.248;2023-04-09T12:03:59;24.95;;;6.20;;
43706;SDS011;61348;53.392;-6.248;2023-04-09T12:06:26;20.17;;;6.00;;
43706;SDS011;61348;53.392;-6.248;2023-04-09T12:11:27;13.93;;;5.43;;
43706;SDS011;61348;53.392;-6.248;2023-04-09T12:13:58;18.92;;;6.68;;
43706;SDS011;61348;53.392;-6.248;2023-04-09T12:16:26;25.67;;;7.85;;
43706;SDS011;61348;53.392;-6.248;2023-04-09T12:19:00;14.93;;;6.05;;
43706;SDS011;61348;53.392;-6.248;2023-04-09T12:24:23;24.52;;;7.45;;
43706;SDS011;61348;53.392;-6.248;2023-04-09T12:26:53;20.95;;;7.07;;
43706;SDS011;61348;53.392;-6.248;2023-04-09T12:29:21;18.85;;;5.18;;
43706;SDS011;61348;53.392;-6.248;2023-04-09T12:31:48;18.58;;;5.25;;
43706;SDS011;61348;53.392;-6.248;2023-04-09T12:34:15;18.33;;;4.65;;
43706;SDS011;61348;53.392;-6.248;2023-04-09T12:36:42;19.15;;;5.88;;
43706;SDS011;61348;53.392;-6.248;2023-04-09T12:39:09;15.75;;;5.78;;
43706;SDS011;61348;53.392;-6.248;2023-04-09T12:41:36;17.92;;;6.28;;
43706;SDS011;61348;53.392;-6.248;2023-04-09T12:44:03;20.75;;;6.68;;
43706;SDS011;61348;53.392;-6.248;2023-04-09T12:46:30;13.63;;;5.03;;
43706;SDS011;61348;53.392;-6.248;2023-04-09T12:48:58;17.20;;;6.50;;
43706;SDS011;61348;53.392;-6.248;2023-04-09T12:51:24;14.38;;;6.82;;
43706;SDS011;61348;53.392;-6.248;2023-04-09T12:53:52;18.08;;;6.95;;
43706;SDS011;61348;53.392;-6.248;2023-04-09T12:56:19;20.40;;;4.90;;
43706;SDS011;61348;53.392;-6.248;2023-04-09T12:58:46;18.17;;;5.15;;
43706;SDS011;61348;53.392;-6.248;2023-04-09T13:01:13;18.83;;;6.00;;
43706;SDS011;61348;53.392;-6.248;2023-04-09T13:03:40;13.63;;;4.50;;
43706;SDS011;61348;53.392;-6.248;2023-04-09T13:06:07;18.30;;;5.25;;
43706;SDS011;61348;53.392;-6.248;2023-04-09T13:08:34;19.30;;;6.00;;
43706;SDS011;61348;53.392;-6.248;2023-04-09T13:11:01;14.45;;;4.70;;
43706;SDS011;61348;53.392;-6.248;2023-04-09T13:13:28;17.08;;;5.90;;
43706;SDS011;61348;53.392;-6.248;2023-04-09T13:15:55;13.35;;;3.78;;
43706;SDS011;61348;53.392;-6.248;2023-04-09T13:18:21;10.77;;;4.35;;
43706;SDS011;61348;53.392;-6.248;2023-04-09T13:20:48;13.70;;;4.80;;
43706;SDS011;61348;53.392;-6.248;2023-04-09T13:23:15;14.80;;;4.22;;
43706;SDS011;61348;53.392;-6.248;2023-04-09T13:25:41;10.50;;;4.10;;
43706;SDS011;61348;53.392;-6.248;2023-04-09T13:28:08;12.77;;;3.90;;
43706;SDS011;61348;53.392;-6.248;2023-04-09T13:30:35;10.15;;;4.63;;
43706;SDS011;61348;53.392;-6.248;2023-04-09T13:33:05;17.00;;;4.22;;
43706;SDS011;61348;53.392;-6.248;2023-04-09T13:35:31;13.70;;;4.57;;
43706;SDS011;61348;53.392;-6.248;2023-04-09T13:37:59;11.55;;;4.90;;
43706;SDS011;61348;53.392;-6.248;2023-04-09T13:40:26;12.93;;;5.15;;
43706;SDS011;61348;53.392;-6.248;2023-04-09T13:42:54;13.27;;;5.40;;
43706;SDS011;61348;53.392;-6.248;2023-04-09T13:45:21;11.57;;;4.65;;
43706;SDS011;61348;53.392;-6.248;2023-04-09T13:47:49;13.82;;;4.85;;
43706;SDS011;61348;53.392;-6.248;2023-04-09T13:50:16;14.48;;;4.80;;
43706;SDS011;61348;53.392;-6.248;2023-04-09T13:52:45;39.85;;;9.20;;
43706;SDS011;61348;53.392;-6.248;2023-04-09T13:55:12;27.08;;;9.00;;
43706;SDS011;61348;53.392;-6.248;2023-04-09T13:57:39;13.90;;;5.70;;
43706;SDS011;61348;53.392;-6.248;2023-04-09T14:00:06;18.63;;;5.35;;
43706;SDS011;61348;53.392;-6.248;2023-04-09T14:02:33;14.35;;;5.13;;
43706;SDS011;61348;53.392;-6.248;2023-04-09T14:05:00;16.92;;;6.93;;
43706;SDS011;61348;53.392;-6.248;2023-04-09T14:07:30;19.98;;;7.18;;
43706;SDS011;61348;53.392;-6.248;2023-04-09T14:09:57;23.83;;;7.57;;
43706;SDS011;61348;53.392;-6.248;2023-04-09T14:12:24;23.80;;;7.57;;
43706;SDS011;61348;53.392;-6.248;2023-04-09T14:14:50;29.23;;;11.70;;
43706;SDS011;61348;53.392;-6.248;2023-04-09T14:17:17;15.40;;;5.45;;
43706;SDS011;61348;53.392;-6.248;2023-04-09T14:19:44;23.48;;;6.20;;
43706;SDS011;61348;53.392;-6.248;2023-04-09T14:22:10;18.52;;;6.30;;
43706;SDS011;61348;53.392;-6.248;2023-04-09T14:24:37;20.33;;;7.03;;
43706;SDS011;61348;53.392;-6.248;2023-04-09T14:27:05;15.30;;;6.82;;
43706;SDS011;61348;53.392;-6.248;2023-04-09T14:29:33;20.92;;;6.57;;
43706;SDS011;61348;53.392;-6.248;2023-04-09T14:32:00;15.45;;;5.88;;
43706;SDS011;61348;53.392;-6.248;2023-04-09T14:34:29;15.27;;;5.97;;
43706;SDS011;61348;53.392;-6.248;2023-04-09T14:36:56;18.63;;;7.07;;
43706;SDS011;61348;53.392;-6.248;2023-04-09T14:39:23;13.07;;;5.50;;
43706;SDS011;61348;53.392;-6.248;2023-04-09T14:41:50;19.10;;;6.03;;
43706;SDS011;61348;53.392;-6.248;2023-04-09T14:44:17;19.92;;;6.57;;
43706;SDS011;61348;53.392;-6.248;2023-04-09T14:46:44;12.95;;;4.85;;
43706;SDS011;61348;53.392;-6.248;2023-04-09T14:49:11;21.33;;;7.15;;
43706;SDS011;61348;53.392;-6.248;2023-04-09T14:51:38;14.75;;;4.07;;
43706;SDS011;61348;53.392;-6.248;2023-04-09T14:54:05;10.98;;;4.93;;
43706;SDS011;61348;53.392;-6.248;2023-04-09T14:56:32;14.32;;;4.65;;
43706;SDS011;61348;53.392;-6.248;2023-04-09T14:58:58;14.02;;;3.75;;
43706;SDS011;61348;53.392;-6.248;2023-04-09T15:01:25;9.70;;;3.72;;
43706;SDS011;61348;53.392;-6.248;2023-04-09T15:03:53;9.80;;;3.88;;
43706;SDS011;61348;53.392;-6.248;2023-04-09T15:06:21;11.30;;;4.22;;